Главная страница
METAR-TAF:

METAR-TAF

Аэропорты :

Сиань, Китай

широта: 34-26N, долгота: 108-45E, высота над уровнем моря: 479 м

Текущие метеонаблюдения

Эта сводка был подготовлена 41 минут назад, в 10:00 UTC
Ветер 6 Узел от восточно-северо-восточный, изменяющийся между северный и восточный
Температура 22°C
Влажность 20%
Давление 1011 hPa
Видимость 10 км и более
Нет облачности ниже 1500 м, и нет кучево-дождевой облачности

METAR: ZLXY 261000Z 06003MPS 010V100 CAVOK 22/M02 Q1011 NOSIG

Время: 18:41 (10:41 UTC)

Прогноз

Эта сводка был подготовлена 7 часа и 38 минут назад, в 03:03 UTC
Прогноз действительный с 26-го 06 UTC до 27-го 06 UTC
Ветер 6 Узел от восточный
Видимость: 3000 м
мгла

TAF: ZLXY 260303Z 2606/2706 08003MPS 3000 HZ NSC TX24/2608Z TN07/2623Z

Метеонаблюдения и прогнозы для более 4000 аэропортов (сводки METAR и TAF).

Имеющиеся станции представлены на карте желтыми и красными точками.

Чтобы увидеть название станции, наведите на нее мышь.

Затем щелкните, чтобы увидеть метеонаблюдения и метеопрогнозы.

Управление картой: чтобы увеличить масштаб, щелкните зеленые кнопки с черным крестиком; чтобы уменьшить масштаб, щелкните зеленую кнопку с тире; для просмотра соседних карт щелкайте зеленые стрелки.


METAR-TAF: